Time;durP1;ratioP1;P1;durP2;ratioP2;P2;SDS_P1;SDS_P2;PMS_P1;PMS_P2;Temp;Humidity;BMP_temperature;BMP_pressure;BME280_temperature;BME280_humidity;BME280_pressure;Samples;Min_cycle;Max_cycle;Signal;HPM_P1;HPM_P2
2023/01/07 00:01:39;;;;;;;7.57;6.28;;;;;;;11.20;85.36;101385.44;3570119;40;20061;-60
2023/01/07 00:04:09;;;;;;;7.97;6.18;;;;;;;11.21;84.71;101400.63;3567408;40;20574;-60
2023/01/07 00:06:38;;;;;;;9.27;6.43;;;;;;;10.51;84.71;101273.59;3567330;40;20122;-60
2023/01/07 00:09:07;;;;;;;9.80;7.22;;;;;;;10.71;84.75;101312.81;3565564;40;20075;-60
2023/01/07 00:11:37;;;;;;;11.77;7.07;;;;;;;10.47;84.97;101266.66;3564520;40;20084;-60
2023/01/07 00:14:05;;;;;;;9.90;6.75;;;;;;;11.13;85.06;101389.41;3564983;40;20457;-60
2023/01/07 00:16:33;;;;;;;9.60;7.32;;;;;;;11.22;85.35;101382.66;3567182;40;20069;-60
2023/01/07 00:19:03;;;;;;;10.15;7.57;;;;;;;11.24;85.00;101386.13;3564248;40;20081;-60
2023/01/07 00:21:30;;;;;;;10.38;7.20;;;;;;;11.21;84.79;101375.53;3563477;40;20054;-60
2023/01/07 00:24:01;;;;;;;10.13;7.88;;;;;;;11.09;84.89;101358.25;3565708;40;20053;-60
2023/01/07 00:26:31;;;;;;;12.35;8.13;;;;;;;11.24;84.65;101381.63;3566895;40;20089;-60
2023/01/07 00:28:59;;;;;;;11.20;7.70;;;;;;;11.13;84.92;101370.56;3565758;40;20326;-60
2023/01/07 00:31:29;;;;;;;11.77;7.75;;;;;;;11.24;84.88;101376.22;3567185;40;20054;-60
2023/01/07 00:36:27;;;;;;;11.50;7.95;;;;;;;11.20;85.03;101372.00;3564777;40;20056;-60
2023/01/07 00:39:00;;;;;;;12.80;7.95;;;;;;;11.20;84.95;101366.59;3563917;40;20053;-60
2023/01/07 00:41:26;;;;;;;10.73;8.00;;;;;;;11.19;84.86;101366.69;3566117;40;20068;-60
2023/01/07 00:43:52;;;;;;;13.40;8.30;;;;;;;11.19;85.19;101370.22;3566946;40;20061;-60
2023/01/07 00:46:18;;;;;;;10.82;7.63;;;;;;;11.16;84.89;101362.31;3564004;40;20093;-60
2023/01/07 00:48:44;;;;;;;10.50;7.32;;;;;;;11.22;84.66;101382.66;3566363;40;20081;-60
2023/01/07 00:51:13;;;;;;;8.93;6.85;;;;;;;11.22;84.75;101364.69;3565288;40;20089;-60
2023/01/07 00:53:39;;;;;;;8.57;6.68;;;;;;;11.26;84.57;101354.59;3566824;40;20074;-60
2023/01/07 00:56:05;;;;;;;8.10;6.47;;;;;;;11.24;84.40;101346.63;3568622;40;20053;-60
2023/01/07 00:58:30;;;;;;;8.95;5.95;;;;;;;11.26;84.42;101352.81;3566186;40;20044;-60
2023/01/07 01:00:59;;;;;;;9.82;6.00;;;;;;;11.25;85.01;101342.13;3565359;40;20056;-60
2023/01/07 01:03:27;;;;;;;7.07;5.78;;;;;;;11.24;84.95;101359.22;3565550;40;20069;-60
2023/01/07 01:05:54;;;;;;;8.90;5.53;;;;;;;10.55;84.26;101220.50;3566156;40;20412;-60
2023/01/07 01:08:21;;;;;;;9.23;6.30;;;;;;;11.23;84.62;101327.91;3566375;40;20130;-60
2023/01/07 01:10:47;;;;;;;8.05;5.75;;;;;;;11.22;83.91;101332.38;3565784;40;20045;-60
2023/01/07 01:13:16;;;;;;;8.52;5.70;;;;;;;10.93;84.33;101281.09;3565712;40;20400;-60
2023/01/07 01:15:45;;;;;;;9.45;5.72;;;;;;;11.15;84.75;101320.25;3553596;40;20157;-60
2023/01/07 01:18:11;;;;;;;10.45;5.72;;;;;;;11.17;84.32;101322.88;3563601;40;20086;-60
2023/01/07 01:20:37;;;;;;;8.15;5.25;;;;;;;11.15;84.60;101318.41;3566831;40;20055;-60
2023/01/07 01:23:05;;;;;;;7.07;5.75;;;;;;;11.11;84.46;101322.25;3556385;40;20061;-61
2023/01/07 01:25:31;;;;;;;9.43;6.47;;;;;;;11.06;84.37;101315.38;3566225;40;20061;-60
2023/01/07 01:27:56;;;;;;;6.63;5.43;;;;;;;9.89;85.09;101133.59;3567098;40;20045;-60
2023/01/07 01:30:22;;;;;;;8.52;5.80;;;;;;;10.76;84.79;101269.56;3568202;40;20089;-60
2023/01/07 01:32:47;;;;;;;8.00;5.57;;;;;;;11.00;84.62;101313.03;3567113;40;20352;-60
2023/01/07 01:35:13;;;;;;;8.40;6.40;;;;;;;11.00;84.83;101313.03;3566766;40;20044;-60
2023/01/07 01:37:39;;;;;;;8.65;5.78;;;;;;;11.00;84.57;101307.66;3567436;40;20112;-60
2023/01/07 01:40:06;;;;;;;12.27;5.75;;;;;;;10.96;84.94;101303.41;3565710;40;20441;-61
2023/01/07 01:42:33;;;;;;;9.10;6.05;;;;;;;10.89;84.94;101305.56;3566693;40;20169;-61
2023/01/07 01:45:00;;;;;;;6.57;5.40;;;;;;;10.96;84.53;101312.31;3569604;40;20059;-61
2023/01/07 01:47:42;;;;;;;8.23;5.18;;;;;;;10.92;84.65;101305.41;3566079;40;20388;-61
2023/01/07 01:50:08;;;;;;;11.60;5.80;;;;;;;10.95;85.54;101298.97;3564105;40;20049;-60
2023/01/07 01:52:55;;;;;;;7.97;5.35;;;;;;;10.97;84.80;101307.81;3567072;40;20057;-60
2023/01/07 01:55:35;;;;;;;7.82;5.30;;;;;;;10.93;84.58;101313.34;3567235;40;20059;-60
2023/01/07 01:58:09;;;;;;;6.07;5.40;;;;;;;10.89;84.69;101306.44;3568547;40;20127;-60
2023/01/07 02:00:36;;;;;;;7.43;4.85;;;;;;;10.95;84.95;101315.13;3567208;40;20130;-60
2023/01/07 02:03:07;;;;;;;7.57;5.20;;;;;;;10.93;84.22;101313.34;3565505;40;20109;-61
2023/01/07 02:05:38;;;;;;;6.18;4.88;;;;;;;10.87;84.52;101292.19;3568866;40;20061;-63
2023/01/07 02:08:05;;;;;;;6.38;4.55;;;;;;;10.90;84.68;101302.78;3567623;40;20052;-60
2023/01/07 02:10:31;;;;;;;6.80;4.78;;;;;;;10.90;84.71;101308.16;3566266;40;20052;-61
2023/01/07 02:13:19;;;;;;;8.68;5.43;;;;;;;10.88;84.86;101314.59;3566571;40;20067;-61
2023/01/07 02:16:17;;;;;;;6.88;5.07;;;;;;;10.87;85.33;101307.47;3567815;40;20055;-60
2023/01/07 02:19:15;;;;;;;8.65;5.18;;;;;;;10.84;85.42;101299.56;3566459;40;20085;-61
2023/01/07 02:22:00;;;;;;;7.97;5.18;;;;;;;10.84;84.68;101302.25;3565237;40;20053;-61
2023/01/07 02:25:25;;;;;;;7.78;5.15;;;;;;;10.82;84.92;101299.66;3566992;40;20130;-61
2023/01/07 02:28:12;;;;;;;8.00;5.03;;;;;;;10.81;85.02;101300.59;3545517;40;20052;-61
2023/01/07 02:31:11;;;;;;;6.03;4.88;;;;;;;10.77;84.65;101296.34;3558353;40;20439;-61
2023/01/07 02:34:17;;;;;;;6.20;4.80;;;;;;;10.75;84.94;101295.59;3566893;40;20380;-61
2023/01/07 02:37:18;;;;;;;6.18;4.78;;;;;;;10.72;85.27;101302.91;3563112;40;20105;-61
2023/01/07 02:39:59;;;;;;;7.43;4.88;;;;;;;10.72;85.61;101300.22;3567507;40;20061;-60
2023/01/07 02:42:56;;;;;;;4.90;4.43;;;;;;;10.72;85.42;101301.13;3567426;40;20435;-61
2023/01/07 02:45:42;;;;;;;5.30;4.38;;;;;;;10.76;85.32;101296.44;3567608;40;20061;-61
2023/01/07 02:48:16;;;;;;;6.50;3.78;;;;;;;10.68;85.06;101273.50;3564454;40;20053;-61
2023/01/07 02:50:42;;;;;;;6.03;4.32;;;;;;;10.83;85.73;101292.44;3569399;40;20060;-61
2023/01/07 02:53:16;;;;;;;7.15;4.80;;;;;;;10.16;84.99;101165.28;3570069;40;20411;-61
2023/01/07 02:56:06;;;;;;;7.32;4.25;;;;;;;10.90;84.70;101292.00;3557292;40;20850;-61
2023/01/07 02:59:31;;;;;;;6.68;4.30;;;;;;;10.95;85.48;101277.47;3568013;40;20400;-60
2023/01/07 03:02:17;;;;;;;5.10;4.10;;;;;;;11.01;84.98;101279.81;3566223;40;20049;-60
2023/01/07 03:05:22;;;;;;;6.38;3.88;;;;;;;11.03;85.02;101278.75;3566764;40;20057;-61
2023/01/07 03:08:11;;;;;;;5.28;3.60;;;;;;;11.09;84.51;101278.41;3569419;40;20065;-60
2023/01/07 03:10:43;;;;;;;4.63;3.63;;;;;;;11.11;84.61;101272.94;3568313;40;20056;-61
2023/01/07 03:13:48;;;;;;;5.97;3.92;;;;;;;11.16;83.97;101270.84;3566787;40;20053;-61
2023/01/07 03:16:22;;;;;;;;;;;;;;;11.17;83.77;101263.66;3564191;40;20125;-61
2023/01/07 03:19:01;;;;;;;4.93;3.65;;;;;;;11.19;83.61;101254.53;3570562;40;19929;-61
2023/01/07 03:21:33;;;;;;;5.03;3.75;;;;;;;11.18;83.95;101252.78;3568351;40;20064;-60
2023/01/07 03:24:01;;;;;;;5.55;4.22;;;;;;;11.21;83.76;101249.06;3568978;40;20048;-61
2023/01/07 03:26:38;;;;;;;5.03;3.80;;;;;;;11.27;83.20;101251.41;3568634;40;20067;-61
2023/01/07 03:29:10;;;;;;;4.43;3.60;;;;;;;11.27;83.03;101244.19;3568317;40;20081;-61
2023/01/07 03:31:52;;;;;;;5.57;3.47;;;;;;;10.62;82.88;101138.56;3564294;40;20056;-61
2023/01/07 03:34:25;;;;;;;5.03;3.90;;;;;;;11.29;82.70;101239.59;3567158;40;20376;-61
2023/01/07 03:37:01;;;;;;;4.10;3.40;;;;;;;11.31;82.73;101239.50;3569177;40;20056;-61
2023/01/07 03:39:33;;;;;;;4.18;3.10;;;;;;;11.32;83.05;101239.41;3568601;40;20371;-61
2023/01/07 03:44:43;;;;;;;4.78;3.78;;;;;;;11.24;82.60;101224.66;3567431;40;20140;-61
2023/01/07 03:47:11;;;;;;;4.35;3.35;;;;;;;11.29;82.69;101223.44;3565850;40;20060;-61
2023/01/07 03:49:36;;;;;;;5.85;3.22;;;;;;;11.33;82.54;101221.44;3568608;40;20052;-61
2023/01/07 03:52:03;;;;;;;6.60;3.30;;;;;;;11.33;82.80;101227.69;3569141;40;20072;-61
2023/01/07 03:54:29;;;;;;;3.22;2.92;;;;;;;11.37;82.38;101225.69;3566830;40;20059;-61
2023/01/07 03:56:54;;;;;;;5.10;3.17;;;;;;;11.37;81.90;101220.28;3568194;40;20396;-61
2023/01/07 03:59:20;;;;;;;6.28;2.90;;;;;;;11.22;82.27;101195.16;3570520;40;20076;-60
2023/01/07 04:01:45;;;;;;;4.32;3.08;;;;;;;11.33;81.82;101214.22;3569636;40;20070;-61
2023/01/07 04:04:11;;;;;;;3.85;2.72;;;;;;;11.38;81.93;101217.53;3568747;40;20055;-61
2023/01/07 04:06:37;;;;;;;6.18;3.20;;;;;;;11.38;82.19;101220.22;3564471;40;20065;-61
2023/01/07 04:09:02;;;;;;;3.03;2.78;;;;;;;11.29;81.95;101199.22;3567079;40;20345;-60
2023/01/07 04:11:28;;;;;;;5.20;2.88;;;;;;;11.35;82.23;101206.94;3564491;40;20056;-60
2023/01/07 04:13:55;;;;;;;3.90;2.97;;;;;;;11.34;82.05;101199.81;3567070;40;20388;-60
2023/01/07 04:16:21;;;;;;;4.10;2.80;;;;;;;11.33;82.03;101203.47;3568048;40;20048;-60
2023/01/07 04:18:47;;;;;;;3.85;2.95;;;;;;;11.31;81.90;101196.44;3568931;40;20518;-60
2023/01/07 04:21:12;;;;;;;3.50;2.83;;;;;;;10.76;81.93;101101.00;3566918;40;20063;-60
2023/01/07 04:23:38;;;;;;;3.33;2.67;;;;;;;11.31;81.23;101189.22;3565748;40;20075;-60
2023/01/07 04:26:04;;;;;;;4.68;3.17;;;;;;;11.29;81.26;101184.88;3566634;40;20060;-60
2023/01/07 04:28:29;;;;;;;5.47;2.90;;;;;;;11.25;81.47;101173.44;3557798;40;20093;-60
2023/01/07 04:30:58;;;;;;;3.83;3.13;;;;;;;11.23;81.48;101175.38;3560206;40;20060;-60
2023/01/07 04:33:24;;;;;;;4.10;2.83;;;;;;;11.19;81.88;101165.72;3556903;40;20057;-60
2023/01/07 04:35:49;;;;;;;5.40;2.78;;;;;;;11.16;81.53;101163.22;3568067;40;20301;-60
2023/01/07 04:38:15;;;;;;;4.22;2.92;;;;;;;11.12;81.52;101167.03;3566027;40;20142;-60
2023/01/07 04:40:40;;;;;;;7.43;3.10;;;;;;;11.11;81.68;101158.13;3565388;40;20065;-61
2023/01/07 04:43:08;;;;;;;6.00;2.70;;;;;;;11.08;81.72;101152.06;3568476;40;20052;-60
2023/01/07 04:45:34;;;;;;;4.80;2.70;;;;;;;11.09;81.49;101149.25;3566720;40;20061;-60
2023/01/07 04:47:59;;;;;;;5.30;2.88;;;;;;;11.08;80.98;101138.59;3557354;40;20110;-60
2023/01/07 04:50:25;;;;;;;4.10;2.65;;;;;;;10.44;81.05;101036.53;3564580;40;21143;-60
2023/01/07 04:52:51;;;;;;;4.15;2.92;;;;;;;11.05;81.57;101136.94;3567228;40;20396;-60
2023/01/07 04:55:17;;;;;;;4.13;2.33;;;;;;;11.07;81.21;101145.81;3566523;40;20095;-60
2023/01/07 04:57:43;;;;;;;2.75;2.55;;;;;;;11.03;80.80;101129.91;3561073;40;20156;-60
2023/01/07 05:00:10;;;;;;;2.80;2.55;;;;;;;11.06;81.09;101140.50;3563005;40;20064;-60
2023/01/07 05:02:36;;;;;;;2.83;2.30;;;;;;;11.04;81.32;101139.75;3561721;40;20158;-60
2023/01/07 05:05:02;;;;;;;4.82;2.42;;;;;;;11.03;81.09;101138.00;3565322;40;20053;-60
2023/01/07 05:07:28;;;;;;;2.92;2.22;;;;;;;10.54;81.00;101054.81;3563794;40;20066;-59
2023/01/07 05:09:54;;;;;;;7.53;2.75;;;;;;;11.00;81.41;101140.84;3565837;40;20059;-59
2023/01/07 05:12:19;;;;;;;3.97;2.30;;;;;;;10.98;81.04;101137.41;3565614;40;20051;-59
2023/01/07 05:14:45;;;;;;;3.92;2.30;;;;;;;10.95;80.95;101137.59;3563253;40;20056;-60
2023/01/07 05:17:11;;;;;;;4.40;2.55;;;;;;;10.99;80.81;101136.44;3562828;40;20061;-59
2023/01/07 05:19:36;;;;;;;3.65;2.55;;;;;;;10.95;80.55;101126.84;3563496;40;20069;-59
2023/01/07 05:22:02;;;;;;;4.38;2.20;;;;;;;10.30;80.87;101011.41;3566355;40;20056;-60
2023/01/07 05:24:28;;;;;;;5.20;2.58;;;;;;;10.92;80.94;101123.34;3562728;40;20053;-60
2023/01/07 05:26:53;;;;;;;5.70;2.58;;;;;;;10.91;81.17;101132.38;3566931;40;20069;-60
2023/01/07 05:29:19;;;;;;;3.17;2.03;;;;;;;10.20;80.34;101002.97;3566605;40;20060;-60
2023/01/07 05:31:44;;;;;;;4.30;2.60;;;;;;;10.94;80.22;101120.56;3567106;40;20060;-60
2023/01/07 05:34:10;;;;;;;4.68;2.10;;;;;;;10.95;79.80;101119.63;3567716;40;20053;-60
2023/01/07 05:36:36;;;;;;;6.22;2.58;;;;;;;10.95;79.75;101121.47;3566361;40;20088;-60
2023/01/07 05:39:02;;;;;;;4.97;2.55;;;;;;;10.92;79.72;101123.34;3566530;40;20072;-60
2023/01/07 05:41:28;;;;;;;3.63;1.92;;;;;;;10.97;79.65;101125.75;3559036;40;20138;-60
2023/01/07 05:43:53;;;;;;;2.67;2.00;;;;;;;11.00;79.47;101130.09;3558305;40;20068;-60
2023/01/07 05:46:19;;;;;;;2.95;2.10;;;;;;;11.00;79.54;101114.81;3569837;40;20087;-60
2023/01/07 05:48:44;;;;;;;3.75;2.28;;;;;;;11.06;78.71;101125.22;3568272;40;20057;-60
2023/01/07 05:51:10;;;;;;;3.72;1.90;;;;;;;11.07;78.51;101115.34;3567472;40;20052;-60
2023/01/07 05:53:36;;;;;;;2.25;1.67;;;;;;;11.10;78.88;101115.13;3564139;40;20075;-60
2023/01/07 05:56:02;;;;;;;3.50;2.03;;;;;;;11.11;78.43;101112.38;3566107;40;20122;-60
2023/01/07 05:58:28;;;;;;;2.10;1.85;;;;;;;11.16;78.29;101114.78;3557488;40;20060;-60
2023/01/07 06:00:54;;;;;;;4.90;2.15;;;;;;;11.18;77.96;101110.19;3565287;40;20061;-60
2023/01/07 06:03:21;;;;;;;2.10;1.90;;;;;;;11.18;77.50;101118.25;3559378;40;20438;-60
2023/01/07 06:05:48;;;;;;;2.15;1.60;;;;;;;11.19;77.68;101114.59;3567109;40;20056;-61
2023/01/07 06:08:15;;;;;;;2.85;1.60;;;;;;;11.19;77.33;101101.13;3564227;40;20055;-60
2023/01/07 06:10:43;;;;;;;2.80;1.67;;;;;;;11.25;76.66;101105.28;3561840;40;20427;-60
2023/01/07 06:13:08;;;;;;;3.80;1.80;;;;;;;10.58;76.82;100986.47;3566370;40;20052;-60
2023/01/07 06:15:34;;;;;;;1.95;1.70;;;;;;;11.24;76.71;101092.81;3564778;40;20063;-60
2023/01/07 06:18:00;;;;;;;2.13;1.70;;;;;;;11.23;76.18;101097.34;3565908;40;20599;-60
2023/01/07 06:20:25;;;;;;;3.40;2.10;;;;;;;11.23;76.29;101089.25;3565518;40;20323;-60
2023/01/07 06:22:51;;;;;;;3.65;2.08;;;;;;;11.23;75.96;101083.88;3566127;40;20046;-60
2023/01/07 06:25:16;;;;;;;2.30;2.10;;;;;;;11.24;75.43;101090.13;3565249;40;20087;-59
2023/01/07 06:27:42;;;;;;;4.22;1.95;;;;;;;11.23;75.21;101073.13;3564005;40;20069;-60
2023/01/07 06:30:10;;;;;;;3.75;1.75;;;;;;;11.25;74.86;101076.56;3567916;40;20470;-60
2023/01/07 06:32:42;;;;;;;2.97;2.28;;;;;;;11.25;74.45;101071.19;3566299;40;20064;-60
2023/01/07 06:35:10;;;;;;;2.90;1.80;;;;;;;11.25;74.78;101065.78;3566760;40;20053;-60
2023/01/07 06:37:37;;;;;;;5.97;1.90;;;;;;;11.21;74.88;101063.41;3564365;40;20071;-60
2023/01/07 06:40:04;;;;;;;1.70;1.60;;;;;;;11.21;74.58;101058.88;3566253;40;20063;-59
2023/01/07 06:42:30;;;;;;;3.05;1.52;;;;;;;11.25;74.44;101071.19;3566680;40;20438;-60
2023/01/07 06:44:55;;;;;;;2.90;1.55;;;;;;;11.24;74.18;101064.06;3564247;40;20064;-61
2023/01/07 06:47:21;;;;;;;1.42;1.33;;;;;;;11.26;73.87;101067.53;3565641;40;20073;-60
2023/01/07 06:49:47;;;;;;;2.35;1.95;;;;;;;11.20;74.05;101057.16;3572823;40;20052;-60
2023/01/07 06:52:12;;;;;;;2.50;1.45;;;;;;;10.79;73.69;100978.97;3566225;40;20414;-60
2023/01/07 06:54:38;;;;;;;3.33;1.77;;;;;;;11.25;73.76;101052.34;3567438;40;20064;-60
2023/01/07 06:57:03;;;;;;;3.20;2.28;;;;;;;11.24;73.52;101056.00;3563947;40;20049;-60
2023/01/07 06:59:29;;;;;;;4.55;2.63;;;;;;;11.25;73.79;101055.03;3562481;40;20048;-60
2023/01/07 07:01:55;;;;;;;3.72;2.13;;;;;;;11.23;73.69;101056.09;3568809;40;20323;-60
2023/01/07 07:04:20;;;;;;;2.78;1.73;;;;;;;11.27;73.47;101058.50;3558412;40;20055;-60
2023/01/07 07:06:46;;;;;;;1.90;1.17;;;;;;;11.27;73.37;101053.13;3568268;40;20057;-60
2023/01/07 07:09:11;;;;;;;2.33;1.10;;;;;;;11.26;73.01;101050.50;3569191;40;20056;-60
2023/01/07 07:11:37;;;;;;;3.97;1.58;;;;;;;11.26;72.96;101050.50;3565226;40;20060;-61
2023/01/07 07:14:03;;;;;;;1.92;1.55;;;;;;;11.26;73.29;101043.31;3567832;40;20056;-60
2023/01/07 07:16:29;;;;;;;1.58;1.20;;;;;;;11.25;73.42;101033.50;3566660;40;20075;-60
2023/01/07 07:18:55;;;;;;;1.92;1.23;;;;;;;11.24;72.93;101031.78;3564710;40;20502;-60
2023/01/07 07:21:20;;;;;;;1.20;1.10;;;;;;;11.26;73.26;101035.25;3566343;40;20126;-61
2023/01/07 07:23:46;;;;;;;1.27;1.10;;;;;;;10.57;73.08;100922.94;3567055;40;20346;-61
2023/01/07 07:26:12;;;;;;;2.88;1.10;;;;;;;11.08;72.89;101006.78;3565734;40;20331;-61
2023/01/07 07:28:41;;;;;;;1.30;1.02;;;;;;;11.15;73.16;101029.66;3565190;40;20112;-61
2023/01/07 07:31:07;;;;;;;2.00;1.20;;;;;;;10.68;72.71;100940.13;3565269;40;20044;-61
2023/01/07 07:33:33;;;;;;;2.55;1.30;;;;;;;11.12;72.71;101025.31;3568152;40;20056;-61
2023/01/07 07:35:59;;;;;;;2.08;1.30;;;;;;;11.06;72.85;101019.44;3569003;40;20072;-61
2023/01/07 07:38:25;;;;;;;2.25;1.30;;;;;;;11.12;72.76;101027.13;3565510;40;20060;-61
2023/01/07 07:40:51;;;;;;;1.50;1.35;;;;;;;11.11;72.56;101025.41;3569541;40;20057;-61
2023/01/07 07:43:16;;;;;;;1.33;1.20;;;;;;;11.12;72.68;101016.38;3568004;40;20059;-61
2023/01/07 07:45:43;;;;;;;1.85;1.75;;;;;;;11.12;72.79;101016.38;3569083;40;20132;-61
2023/01/07 07:48:13;;;;;;;3.38;2.05;;;;;;;11.12;72.78;101016.38;3571599;40;20121;-61
2023/01/07 07:50:38;;;;;;;2.30;1.52;;;;;;;11.14;72.41;101015.34;3567998;40;20157;-61
2023/01/07 07:53:08;;;;;;;3.70;1.40;;;;;;;11.08;72.36;101001.41;3571649;40;20049;-61
2023/01/07 07:55:39;;;;;;;1.83;1.35;;;;;;;11.14;71.95;101006.41;3570409;40;20065;-61
2023/01/07 07:58:06;;;;;;;2.70;1.67;;;;;;;11.10;72.31;101002.16;3569999;40;20323;-62
2023/01/07 08:00:32;;;;;;;1.83;1.38;;;;;;;11.14;72.41;100998.34;3571040;40;20336;-62
2023/01/07 08:02:58;;;;;;;2.80;1.30;;;;;;;11.08;71.73;100988.81;3571670;40;20150;-62
2023/01/07 08:05:26;;;;;;;1.52;1.42;;;;;;;11.14;71.84;100993.81;3570453;40;20057;-62
2023/01/07 08:07:52;;;;;;;1.30;1.20;;;;;;;11.10;71.71;100986.00;3565579;40;20303;-62
2023/01/07 08:10:19;;;;;;;1.90;1.10;;;;;;;11.14;71.33;100988.44;3567143;40;20068;-62
2023/01/07 08:12:45;;;;;;;2.80;1.20;;;;;;;11.18;71.46;100982.84;3568845;40;20053;-62
2023/01/07 08:15:11;;;;;;;1.30;1.20;;;;;;;11.16;71.56;100985.63;3567312;40;20611;-62
2023/01/07 08:17:37;;;;;;;1.88;1.60;;;;;;;10.04;71.24;100795.34;3568579;40;20067;-62
2023/01/07 08:20:07;;;;;;;1.48;1.38;;;;;;;11.19;71.13;100988.13;3567038;40;20424;-62
2023/01/07 08:22:34;;;;;;;1.67;1.10;;;;;;;11.11;71.07;100961.72;3566717;40;20049;-63
2023/01/07 08:25:00;;;;;;;1.77;1.17;;;;;;;11.26;70.88;100981.44;3566513;40;20037;-62
2023/01/07 08:27:26;;;;;;;1.38;1.02;;;;;;;11.27;70.89;100972.38;3554484;40;20091;-62
2023/01/07 08:29:53;;;;;;;1.40;1.30;;;;;;;11.30;70.38;100982.97;3564087;40;20127;-61
2023/01/07 08:32:19;;;;;;;1.63;1.10;;;;;;;11.33;69.98;100974.69;3564373;40;20065;-63
2023/01/07 08:34:45;;;;;;;4.07;1.60;;;;;;;11.35;69.92;100970.09;3570083;40;20398;-62
2023/01/07 08:37:10;;;;;;;3.63;1.30;;;;;;;11.35;69.91;100963.81;3570881;40;20359;-62
2023/01/07 08:39:36;;;;;;;2.35;1.00;;;;;;;11.41;69.69;100967.97;3570583;40;21544;-62
2023/01/07 08:42:03;;;;;;;1.77;1.23;;;;;;;11.32;69.51;100946.06;3560961;40;20049;-62
2023/01/07 08:44:28;;;;;;;3.30;1.20;;;;;;;11.41;69.44;100949.13;3570027;40;20059;-62
2023/01/07 08:46:54;;;;;;;2.25;1.23;;;;;;;11.45;69.40;100965.00;3570857;40;20276;-62
2023/01/07 08:49:20;;;;;;;1.88;1.40;;;;;;;11.49;68.75;100954.91;3570173;40;20053;-62
2023/01/07 08:51:46;;;;;;;1.08;0.95;;;;;;;11.52;68.79;100955.56;3570053;40;20346;-63
2023/01/07 08:54:11;;;;;;;1.75;1.17;;;;;;;10.90;68.92;100848.25;3570548;40;20083;-62
2023/01/07 08:56:37;;;;;;;0.98;0.98;;;;;;;11.55;68.96;100955.38;3569705;40;20060;-62
2023/01/07 08:59:02;;;;;;;1.27;1.08;;;;;;;11.57;67.96;100947.16;3570161;40;20426;-62
2023/01/07 09:01:28;;;;;;;4.20;1.30;;;;;;;11.60;68.41;100947.84;3570934;40;20056;-62
2023/01/07 09:03:54;;;;;;;1.33;1.23;;;;;;;11.59;68.30;100950.66;3572506;40;20299;-62
2023/01/07 09:06:21;;;;;;;1.02;1.00;;;;;;;11.64;68.31;100959.31;3571070;40;20055;-62
2023/01/07 09:08:46;;;;;;;1.30;0.90;;;;;;;10.96;68.24;100832.69;3572768;40;20064;-62
2023/01/07 09:11:12;;;;;;;0.90;0.80;;;;;;;11.66;67.50;100946.59;3572196;40;20054;-62
2023/01/07 09:13:37;;;;;;;1.20;1.10;;;;;;;11.69;67.74;100935.63;3563029;40;20079;-62
2023/01/07 09:16:03;;;;;;;1.25;1.02;;;;;;;11.71;67.88;100932.84;3572397;40;20049;-62
2023/01/07 09:18:29;;;;;;;2.90;1.20;;;;;;;11.68;67.31;100933.03;3569728;40;20052;-63
2023/01/07 09:20:55;;;;;;;4.18;1.00;;;;;;;11.14;66.95;100836.91;3572257;40;20061;-63
2023/01/07 09:23:20;;;;;;;1.40;0.95;;;;;;;11.12;66.28;100820.00;3571485;40;20053;-63
2023/01/07 09:25:46;;;;;;;2.45;1.10;;;;;;;11.73;66.03;100920.97;3572266;40;20060;-63
2023/01/07 09:28:12;;;;;;;0.73;0.73;;;;;;;11.82;65.97;100924.91;3571893;40;20087;-62
2023/01/07 09:30:37;;;;;;;1.92;1.13;;;;;;;11.81;66.04;100924.06;3562449;40;20501;-62
2023/01/07 09:33:03;;;;;;;1.30;1.20;;;;;;;11.89;66.33;100925.41;3572027;40;20056;-61
2023/01/07 09:35:29;;;;;;;2.35;1.10;;;;;;;11.23;65.89;100806.72;3571096;40;20052;-61
2023/01/07 09:37:57;;;;;;;2.05;1.00;;;;;;;11.92;65.56;100919.81;3572300;40;20059;-61
2023/01/07 09:40:35;;;;;;;1.27;1.00;;;;;;;11.95;65.69;100908.84;3570964;40;20097;-61
2023/01/07 09:43:39;;;;;;;0.82;0.80;;;;;;;11.94;64.94;100909.81;3569508;40;20055;-61
2023/01/07 09:46:10;;;;;;;1.33;0.95;;;;;;;11.99;64.93;100903.16;3570370;40;20052;-61
2023/01/07 09:48:46;;;;;;;0.80;0.80;;;;;;;12.04;64.66;100897.44;3571903;40;20299;-63
2023/01/07 09:51:32;;;;;;;1.45;1.05;;;;;;;12.13;64.21;100890.59;3570060;40;20048;-61
2023/01/07 09:54:03;;;;;;;0.60;0.60;;;;;;;12.22;64.39;100893.53;3571866;40;20049;-61
2023/01/07 09:56:35;;;;;;;1.35;0.68;;;;;;;12.30;64.11;100893.88;3570857;40;20058;-61
2023/01/07 09:59:05;;;;;;;1.10;0.90;;;;;;;12.22;63.72;100855.78;3571852;40;20060;-62
2023/01/07 10:01:43;;;;;;;1.75;0.93;;;;;;;11.93;63.30;100781.47;3569416;40;20122;-62
2023/01/07 10:04:53;;;;;;;0.95;0.95;;;;;;;12.66;62.62;100873.44;3566302;40;20049;-62
2023/01/07 10:07:49;;;;;;;1.35;0.75;;;;;;;12.81;62.58;100876.00;3566030;40;20688;-61
2023/01/07 10:10:49;;;;;;;1.10;1.00;;;;;;;12.91;62.39;100861.78;3564609;40;20053;-63
2023/01/07 10:13:56;;;;;;;1.00;0.82;;;;;;;12.98;61.40;100868.47;3565769;40;20065;-61
2023/01/07 10:16:53;;;;;;;1.08;0.82;;;;;;;13.09;61.55;100853.31;3565163;40;20057;-63
2023/01/07 10:19:37;;;;;;;1.98;1.13;;;;;;;13.18;60.60;100842.72;3565225;40;20053;-61
2023/01/07 10:22:50;;;;;;;2.08;0.93;;;;;;;13.27;60.71;100833.13;3565263;40;20045;-62
2023/01/07 10:25:26;;;;;;;1.10;1.00;;;;;;;13.37;59.70;100839.56;3566421;40;20065;-62
2023/01/07 10:28:01;;;;;;;2.78;1.02;;;;;;;13.47;59.58;100828.97;3569860;40;20104;-60
2023/01/07 10:30:34;;;;;;;0.80;0.80;;;;;;;13.59;59.64;100814.56;3564194;40;20068;-62
2023/01/07 10:33:35;;;;;;;2.75;0.90;;;;;;;13.66;58.05;100815.81;3569282;40;20120;-63
2023/01/07 10:36:37;;;;;;;1.25;0.85;;;;;;;13.39;58.74;100755.78;3519692;40;20081;-63
2023/01/07 10:39:33;;;;;;;1.48;0.65;;;;;;;13.64;58.08;100798.88;3564602;40;20069;-63
2023/01/07 10:42:36;;;;;;;1.08;0.80;;;;;;;13.79;57.53;100804.09;3567718;40;20707;-63
2023/01/07 10:45:35;;;;;;;2.80;0.80;;;;;;;13.81;57.35;100792.19;3566153;40;20481;-62
2023/01/07 10:48:41;;;;;;;2.28;0.90;;;;;;;13.94;57.00;100792.13;3564733;40;20101;-62
2023/01/07 10:51:42;;;;;;;0.73;0.73;;;;;;;14.06;57.47;100780.38;3567534;40;20045;-63
2023/01/07 10:54:30;;;;;;;1.25;1.00;;;;;;;14.17;56.24;100774.97;3566638;40;20048;-62
2023/01/07 10:57:20;;;;;;;0.70;0.70;;;;;;;14.28;55.53;100768.75;3563188;40;20057;-62
2023/01/07 10:59:54;;;;;;;1.27;0.75;;;;;;;14.35;55.17;100758.31;3567344;40;20069;-63
2023/01/07 11:02:26;;;;;;;2.97;0.88;;;;;;;14.34;53.99;100753.88;3565116;40;20046;-62
2023/01/07 11:04:57;;;;;;;0.70;0.70;;;;;;;13.79;53.76;100677.97;3568816;40;20056;-63
2023/01/07 11:07:46;;;;;;;0.63;0.63;;;;;;;14.23;53.98;100759.25;3564350;40;20049;-62
2023/01/07 11:10:22;;;;;;;1.15;0.85;;;;;;;14.03;54.45;100733.78;3566786;40;20049;-63
2023/01/07 11:12:54;;;;;;;0.85;0.73;;;;;;;13.67;55.24;100697.84;3566154;40;20041;-63
2023/01/07 11:15:55;;;;;;;2.60;0.90;;;;;;;13.86;55.31;100729.66;3564261;40;20055;-63
2023/01/07 11:18:32;;;;;;;0.85;0.77;;;;;;;13.33;54.86;100645.53;3558225;40;20064;-64
2023/01/07 11:20:59;;;;;;;0.98;0.93;;;;;;;13.92;54.20;100735.50;3564733;40;20084;-65
2023/01/07 11:23:40;;;;;;;1.35;0.70;;;;;;;13.93;54.64;100733.66;3564375;40;20566;-64
2023/01/07 11:26:24;;;;;;;1.85;0.70;;;;;;;13.99;55.12;100730.47;3566005;40;20096;-65
2023/01/07 11:29:14;;;;;;;0.90;0.90;;;;;;;14.16;54.58;100718.34;3564673;40;20303;-65
2023/01/07 11:31:53;;;;;;;1.40;0.77;;;;;;;14.20;54.26;100716.25;3565042;40;20401;-65
2023/01/07 11:34:27;;;;;;;1.65;0.98;;;;;;;14.27;53.95;100704.84;3565318;40;20393;-65
2023/01/07 11:36:53;;;;;;;1.00;0.85;;;;;;;13.82;53.29;100598.50;3566763;40;20063;-63
2023/01/07 11:39:28;;;;;;;1.95;1.00;;;;;;;14.43;52.94;100693.66;3563290;40;20392;-63
2023/01/07 11:42:51;;;;;;;0.90;0.90;;;;;;;14.48;52.97;100699.53;3564854;40;20051;-63
2023/01/07 11:45:35;;;;;;;0.80;0.80;;;;;;;14.76;52.26;100697.34;3563460;40;20073;-64
2023/01/07 11:48:08;;;;;;;0.70;0.70;;;;;;;14.73;52.35;100675.97;3566448;40;20315;-64
2023/01/07 11:50:51;;;;;;;2.28;1.00;;;;;;;14.81;52.51;100673.47;3557184;40;20374;-64
2023/01/07 11:53:17;;;;;;;;;;;;;;;14.65;51.56;100667.59;3565651;40;20127;-64